sensor_id;sensor_type;location;lat;lon;timestamp;pressure;altitude;pressure_sealevel;temperature;humidity
10460;BME280;54412;51.206;6.888;2022-07-23T00:01:35;101098.00;;;20.37;70.97
10460;BME280;54412;51.206;6.888;2022-07-23T00:04:01;101101.78;;;20.34;70.77
10460;BME280;54412;51.206;6.888;2022-07-23T00:06:27;101103.50;;;20.24;71.16
10460;BME280;54412;51.206;6.888;2022-07-23T00:08:53;101102.91;;;20.10;71.45
10460;BME280;54412;51.206;6.888;2022-07-23T00:11:19;101099.03;;;20.25;71.15
10460;BME280;54412;51.206;6.888;2022-07-23T00:13:45;101103.50;;;20.13;71.15
10460;BME280;54412;51.206;6.888;2022-07-23T00:16:11;101106.56;;;20.31;70.87
10460;BME280;54412;51.206;6.888;2022-07-23T00:18:36;101108.16;;;20.22;70.54
10460;BME280;54412;51.206;6.888;2022-07-23T00:21:02;101105.06;;;20.38;70.12
10460;BME280;54412;51.206;6.888;2022-07-23T00:23:28;101105.31;;;20.35;69.28
10460;BME280;54412;51.206;6.888;2022-07-23T00:25:56;101104.34;;;20.36;69.80
10460;BME280;54412;51.206;6.888;2022-07-23T00:28:22;101104.84;;;20.30;70.19
10460;BME280;54412;51.206;6.888;2022-07-23T00:30:47;101091.84;;;20.25;70.52
10460;BME280;54412;51.206;6.888;2022-07-23T00:33:13;101090.38;;;20.21;71.01
10460;BME280;54412;51.206;6.888;2022-07-23T00:35:40;101101.31;;;20.29;69.91
10460;BME280;54412;51.206;6.888;2022-07-23T00:38:08;101096.59;;;20.22;69.77
10460;BME280;54412;51.206;6.888;2022-07-23T00:40:38;101100.72;;;20.15;69.89
10460;BME280;54412;51.206;6.888;2022-07-23T00:43:05;101089.53;;;20.10;69.77
10460;BME280;54412;51.206;6.888;2022-07-23T00:45:31;101094.53;;;20.14;70.41
10460;BME280;54412;51.206;6.888;2022-07-23T00:47:59;101084.44;;;19.96;71.14
10460;BME280;54412;51.206;6.888;2022-07-23T00:50:26;101087.56;;;20.12;70.58
10460;BME280;54412;51.206;6.888;2022-07-23T00:52:52;101090.38;;;20.21;70.21
10460;BME280;54412;51.206;6.888;2022-07-23T00:55:18;101084.75;;;20.24;70.35
10460;BME280;54412;51.206;6.888;2022-07-23T00:57:44;101091.38;;;20.09;71.26
10460;BME280;54412;51.206;6.888;2022-07-23T01:00:13;101087.72;;;19.99;71.84
10460;BME280;54412;51.206;6.888;2022-07-23T01:02:40;101094.34;;;19.84;72.15
10460;BME280;54412;51.206;6.888;2022-07-23T01:05:07;101097.19;;;20.14;71.42
10460;BME280;54412;51.206;6.888;2022-07-23T01:07:33;101097.44;;;20.11;70.52
10460;BME280;54412;51.206;6.888;2022-07-23T01:10:01;101105.38;;;20.13;70.38
10460;BME280;54412;51.206;6.888;2022-07-23T01:12:27;101096.88;;;19.97;70.69
10460;BME280;54412;51.206;6.888;2022-07-23T01:14:58;101089.19;;;20.03;70.37
10460;BME280;54412;51.206;6.888;2022-07-23T01:17:23;101093.94;;;20.00;71.18
10460;BME280;54412;51.206;6.888;2022-07-23T01:19:49;101099.16;;;20.12;71.08
10460;BME280;54412;51.206;6.888;2022-07-23T01:22:19;101096.59;;;20.11;71.05
10460;BME280;54412;51.206;6.888;2022-07-23T01:24:46;101098.53;;;20.09;70.97
10460;BME280;54412;51.206;6.888;2022-07-23T01:27:12;101101.47;;;20.17;71.00
10460;BME280;54412;51.206;6.888;2022-07-23T01:29:38;101100.91;;;19.91;72.30
10460;BME280;54412;51.206;6.888;2022-07-23T01:32:05;101107.56;;;20.19;71.06
10460;BME280;54412;51.206;6.888;2022-07-23T01:34:31;101106.09;;;20.15;71.15
10460;BME280;54412;51.206;6.888;2022-07-23T01:36:57;101108.16;;;20.22;70.49
10460;BME280;54412;51.206;6.888;2022-07-23T01:39:23;101103.06;;;20.19;70.67
10460;BME280;54412;51.206;6.888;2022-07-23T01:41:48;101107.06;;;20.14;70.90
10460;BME280;54412;51.206;6.888;2022-07-23T01:44:14;101095.47;;;20.13;70.26
10460;BME280;54412;51.206;6.888;2022-07-23T01:46:40;101100.50;;;20.07;70.06
10460;BME280;54412;51.206;6.888;2022-07-23T01:49:06;101093.22;;;19.87;71.56
10460;BME280;54412;51.206;6.888;2022-07-23T01:51:32;101087.88;;;19.87;70.66
10460;BME280;54412;51.206;6.888;2022-07-23T01:53:57;101081.94;;;19.83;71.23
10460;BME280;54412;51.206;6.888;2022-07-23T01:56:23;101081.25;;;19.59;72.23
10460;BME280;54412;51.206;6.888;2022-07-23T01:58:49;101080.38;;;19.81;71.53
10460;BME280;54412;51.206;6.888;2022-07-23T02:01:16;101078.59;;;20.02;70.64
10460;BME280;54412;51.206;6.888;2022-07-23T02:03:42;101075.19;;;20.00;70.61
10460;BME280;54412;51.206;6.888;2022-07-23T02:06:07;101087.72;;;19.99;70.42
10460;BME280;54412;51.206;6.888;2022-07-23T02:08:33;101091.41;;;19.87;70.37
10460;BME280;54412;51.206;6.888;2022-07-23T02:10:59;101085.66;;;19.92;70.39
10460;BME280;54412;51.206;6.888;2022-07-23T02:13:24;101091.53;;;19.97;70.20
10460;BME280;54412;51.206;6.888;2022-07-23T02:15:51;101088.50;;;19.68;71.43
10460;BME280;54412;51.206;6.888;2022-07-23T02:18:17;101089.47;;;19.78;71.06
10460;BME280;54412;51.206;6.888;2022-07-23T02:20:43;101086.31;;;19.84;71.06
10460;BME280;54412;51.206;6.888;2022-07-23T02:23:10;101085.34;;;19.74;70.62
10460;BME280;54412;51.206;6.888;2022-07-23T02:25:35;101083.28;;;19.77;70.75
10460;BME280;54412;51.206;6.888;2022-07-23T02:28:01;101082.53;;;19.87;70.55
10460;BME280;54412;51.206;6.888;2022-07-23T02:30:28;101083.88;;;19.81;70.28
10460;BME280;54412;51.206;6.888;2022-07-23T02:32:54;101079.63;;;19.78;70.22
10460;BME280;54412;51.206;6.888;2022-07-23T02:35:19;101086.34;;;19.73;70.17
10460;BME280;54412;51.206;6.888;2022-07-23T02:37:45;101086.19;;;19.86;69.45
10460;BME280;54412;51.206;6.888;2022-07-23T02:40:11;101074.63;;;19.74;69.81
10460;BME280;54412;51.206;6.888;2022-07-23T02:42:37;101079.03;;;19.64;70.50
10460;BME280;54412;51.206;6.888;2022-07-23T02:45:03;101074.03;;;19.59;70.65
10460;BME280;54412;51.206;6.888;2022-07-23T02:47:29;101080.13;;;19.50;70.86
10460;BME280;54412;51.206;6.888;2022-07-23T02:49:54;101075.16;;;19.46;71.06
10460;BME280;54412;51.206;6.888;2022-07-23T02:52:21;101078.31;;;19.40;71.45
10460;BME280;54412;51.206;6.888;2022-07-23T02:54:46;101084.16;;;19.45;71.12
10460;BME280;54412;51.206;6.888;2022-07-23T02:57:12;101084.16;;;19.45;71.04
10460;BME280;54412;51.206;6.888;2022-07-23T02:59:38;101096.31;;;19.38;70.95
10460;BME280;54412;51.206;6.888;2022-07-23T03:02:03;101086.47;;;19.38;71.27
10460;BME280;54412;51.206;6.888;2022-07-23T03:04:29;101084.06;;;19.46;70.86
10460;BME280;54412;51.206;6.888;2022-07-23T03:06:54;101075.38;;;19.43;71.11
10460;BME280;54412;51.206;6.888;2022-07-23T03:09:20;101080.38;;;19.36;71.20
10460;BME280;54412;51.206;6.888;2022-07-23T03:11:46;101083.31;;;19.44;70.62
10460;BME280;54412;51.206;6.888;2022-07-23T03:14:11;101088.41;;;19.58;69.45
10460;BME280;54412;51.206;6.888;2022-07-23T03:16:38;101083.91;;;19.37;70.35
10460;BME280;54412;51.206;6.888;2022-07-23T03:19:04;101090.47;;;19.33;70.10
10460;BME280;54412;51.206;6.888;2022-07-23T03:21:30;101083.03;;;19.25;70.85
10460;BME280;54412;51.206;6.888;2022-07-23T03:23:56;101085.69;;;19.25;70.61
10460;BME280;54412;51.206;6.888;2022-07-23T03:26:21;101085.34;;;19.19;70.60
10460;BME280;54412;51.206;6.888;2022-07-23T03:28:51;101081.81;;;19.29;70.42
10460;BME280;54412;51.206;6.888;2022-07-23T03:31:17;101083.50;;;19.30;70.25
10460;BME280;54412;51.206;6.888;2022-07-23T03:33:43;101078.41;;;19.27;70.54
10460;BME280;54412;51.206;6.888;2022-07-23T03:36:09;101080.13;;;19.28;70.18
10460;BME280;54412;51.206;6.888;2022-07-23T03:38:34;101088.97;;;19.29;69.71
10460;BME280;54412;51.206;6.888;2022-07-23T03:41:00;101087.16;;;19.18;70.03
10460;BME280;54412;51.206;6.888;2022-07-23T03:43:26;101087.75;;;19.22;70.13
10460;BME280;54412;51.206;6.888;2022-07-23T03:45:52;101084.72;;;19.15;69.97
10460;BME280;54412;51.206;6.888;2022-07-23T03:48:17;101089.47;;;19.12;70.06
10460;BME280;54412;51.206;6.888;2022-07-23T03:50:43;101091.53;;;19.19;70.11
10460;BME280;54412;51.206;6.888;2022-07-23T03:53:10;101100.66;;;19.17;70.28
10460;BME280;54412;51.206;6.888;2022-07-23T03:55:35;101091.25;;;19.00;70.88
10460;BME280;54412;51.206;6.888;2022-07-23T03:58:01;101082.50;;;18.98;70.92
10460;BME280;54412;51.206;6.888;2022-07-23T04:00:27;101087.34;;;18.93;70.53
10460;BME280;54412;51.206;6.888;2022-07-23T04:02:53;101086.06;;;19.10;70.27
10460;BME280;54412;51.206;6.888;2022-07-23T04:05:19;101092.00;;;19.02;70.57
10460;BME280;54412;51.206;6.888;2022-07-23T04:07:44;101087.00;;;18.98;70.82
10460;BME280;54412;51.206;6.888;2022-07-23T04:10:10;101090.88;;;18.94;70.63
10460;BME280;54412;51.206;6.888;2022-07-23T04:12:36;101102.19;;;18.97;70.64
10460;BME280;54412;51.206;6.888;2022-07-23T04:15:02;101106.69;;;18.97;70.76
10460;BME280;54412;51.206;6.888;2022-07-23T04:17:28;101107.44;;;19.10;70.57
10460;BME280;54412;51.206;6.888;2022-07-23T04:19:54;101099.84;;;18.93;71.00
10460;BME280;54412;51.206;6.888;2022-07-23T04:22:20;101098.97;;;19.16;70.36
10460;BME280;54412;51.206;6.888;2022-07-23T04:24:45;101093.34;;;19.08;70.55
10460;BME280;54412;51.206;6.888;2022-07-23T04:27:11;101100.75;;;19.04;70.50
10460;BME280;54412;51.206;6.888;2022-07-23T04:29:37;101106.97;;;19.05;70.77
10460;BME280;54412;51.206;6.888;2022-07-23T04:32:03;101096.88;;;19.08;71.10
10460;BME280;54412;51.206;6.888;2022-07-23T04:34:29;101102.34;;;19.18;70.64
10460;BME280;54412;51.206;6.888;2022-07-23T04:36:54;101105.00;;;19.18;70.42
10460;BME280;54412;51.206;6.888;2022-07-23T04:39:20;101107.34;;;19.22;70.48
10460;BME280;54412;51.206;6.888;2022-07-23T04:41:46;101110.38;;;19.07;70.83
10460;BME280;54412;51.206;6.888;2022-07-23T04:44:11;101116.06;;;19.13;70.96
10460;BME280;54412;51.206;6.888;2022-07-23T04:46:37;101124.84;;;19.15;70.93
10460;BME280;54412;51.206;6.888;2022-07-23T04:49:03;101122.66;;;19.20;71.08
10460;BME280;54412;51.206;6.888;2022-07-23T04:51:28;101126.03;;;19.11;71.13
10460;BME280;54412;51.206;6.888;2022-07-23T04:53:55;101128.59;;;19.13;71.56
10460;BME280;54412;51.206;6.888;2022-07-23T04:56:21;101135.75;;;19.12;71.65
10460;BME280;54412;51.206;6.888;2022-07-23T04:58:46;101143.44;;;19.17;71.49
10460;BME280;54412;51.206;6.888;2022-07-23T05:01:12;101146.25;;;19.26;71.53
10460;BME280;54412;51.206;6.888;2022-07-23T05:03:38;101146.41;;;19.47;70.61
10460;BME280;54412;51.206;6.888;2022-07-23T05:06:04;101141.31;;;19.33;71.42
10460;BME280;54412;51.206;6.888;2022-07-23T05:08:30;101145.94;;;19.42;71.44
10460;BME280;54412;51.206;6.888;2022-07-23T05:10:55;101145.06;;;19.41;71.69
10460;BME280;54412;51.206;6.888;2022-07-23T05:13:22;101134.50;;;19.51;71.00
10460;BME280;54412;51.206;6.888;2022-07-23T05:15:47;101145.34;;;19.60;70.70
10460;BME280;54412;51.206;6.888;2022-07-23T05:18:13;101156.16;;;19.48;71.09
10460;BME280;54412;51.206;6.888;2022-07-23T05:20:39;101164.94;;;19.50;71.07
10460;BME280;54412;51.206;6.888;2022-07-23T05:23:04;101160.66;;;19.47;71.39
10460;BME280;54412;51.206;6.888;2022-07-23T05:25:30;101166.00;;;19.47;71.47
10460;BME280;54412;51.206;6.888;2022-07-23T05:27:56;101164.69;;;19.53;70.72
10460;BME280;54412;51.206;6.888;2022-07-23T05:30:22;101157.50;;;19.53;70.69
10460;BME280;54412;51.206;6.888;2022-07-23T05:32:47;101169.75;;;19.45;71.61
10460;BME280;54412;51.206;6.888;2022-07-23T05:35:13;101167.59;;;19.50;71.04
10460;BME280;54412;51.206;6.888;2022-07-23T05:37:39;101160.28;;;19.63;70.88
10460;BME280;54412;51.206;6.888;2022-07-23T05:40:07;101157.00;;;19.37;71.84
10460;BME280;54412;51.206;6.888;2022-07-23T05:42:38;101168.69;;;19.58;71.17
10460;BME280;54412;51.206;6.888;2022-07-23T05:45:06;101166.13;;;19.57;71.21
10460;BME280;54412;51.206;6.888;2022-07-23T05:47:43;101166.38;;;19.76;70.70
10460;BME280;54412;51.206;6.888;2022-07-23T05:50:11;101168.78;;;19.68;70.90
10460;BME280;54412;51.206;6.888;2022-07-23T05:52:37;101170.00;;;19.86;70.61
10460;BME280;54412;51.206;6.888;2022-07-23T05:55:04;101169.91;;;19.65;70.97
10460;BME280;54412;51.206;6.888;2022-07-23T05:57:30;101171.59;;;19.66;71.15
10460;BME280;54412;51.206;6.888;2022-07-23T05:59:56;101166.50;;;19.74;71.29
10460;BME280;54412;51.206;6.888;2022-07-23T06:02:21;101176.22;;;19.75;70.98
10460;BME280;54412;51.206;6.888;2022-07-23T06:04:47;101183.31;;;19.76;71.36
10460;BME280;54412;51.206;6.888;2022-07-23T06:07:13;101183.50;;;19.73;71.18
10460;BME280;54412;51.206;6.888;2022-07-23T06:09:38;101189.88;;;19.84;71.03
10460;BME280;54412;51.206;6.888;2022-07-23T06:12:05;101186.59;;;19.80;71.18
10460;BME280;54412;51.206;6.888;2022-07-23T06:14:30;101186.06;;;19.86;71.10
10460;BME280;54412;51.206;6.888;2022-07-23T06:16:56;101187.31;;;19.71;71.80
10460;BME280;54412;51.206;6.888;2022-07-23T06:19:22;101189.00;;;19.83;71.28
10460;BME280;54412;51.206;6.888;2022-07-23T06:21:48;101187.78;;;19.98;71.00
10460;BME280;54412;51.206;6.888;2022-07-23T06:24:13;101181.22;;;19.91;71.12
10460;BME280;54412;51.206;6.888;2022-07-23T06:26:39;101183.66;;;19.83;71.93
10460;BME280;54412;51.206;6.888;2022-07-23T06:29:05;101198.25;;;20.01;71.27
10460;BME280;54412;51.206;6.888;2022-07-23T06:31:30;101190.34;;;20.11;71.31
10460;BME280;54412;51.206;6.888;2022-07-23T06:33:56;101188.28;;;19.92;72.12
10460;BME280;54412;51.206;6.888;2022-07-23T06:36:22;101191.06;;;20.13;71.56
10460;BME280;54412;51.206;6.888;2022-07-23T06:38:47;101192.03;;;20.12;71.43
10460;BME280;54412;51.206;6.888;2022-07-23T06:41:13;101199.19;;;20.33;70.71
10460;BME280;54412;51.206;6.888;2022-07-23T06:43:39;101191.91;;;20.35;71.53
10460;BME280;54412;51.206;6.888;2022-07-23T06:46:04;101197.50;;;20.43;70.23
10460;BME280;54412;51.206;6.888;2022-07-23T06:48:30;101194.41;;;20.48;70.45
10460;BME280;54412;51.206;6.888;2022-07-23T06:50:56;101196.75;;;20.41;70.00
10460;BME280;54412;51.206;6.888;2022-07-23T06:53:21;101193.19;;;20.52;69.68
10460;BME280;54412;51.206;6.888;2022-07-23T06:55:47;101196.91;;;20.71;69.78
10460;BME280;54412;51.206;6.888;2022-07-23T06:58:13;101198.84;;;20.69;69.67
10460;BME280;54412;51.206;6.888;2022-07-23T07:00:40;101194.84;;;20.64;69.83
10460;BME280;54412;51.206;6.888;2022-07-23T07:03:06;101208.94;;;20.77;69.07
10460;BME280;54412;51.206;6.888;2022-07-23T07:05:31;101204.44;;;20.77;69.11
10460;BME280;54412;51.206;6.888;2022-07-23T07:07:57;101200.47;;;20.93;68.79
10460;BME280;54412;51.206;6.888;2022-07-23T07:10:23;101208.38;;;21.05;68.91
10460;BME280;54412;51.206;6.888;2022-07-23T07:12:48;101207.72;;;21.13;68.73
10460;BME280;54412;51.206;6.888;2022-07-23T07:15:14;101212.63;;;21.28;68.37
10460;BME280;54412;51.206;6.888;2022-07-23T07:17:40;101216.16;;;21.29;67.85
10460;BME280;54412;51.206;6.888;2022-07-23T07:20:08;101215.75;;;21.54;67.08
10460;BME280;54412;51.206;6.888;2022-07-23T07:22:34;101220.63;;;21.60;67.96
10460;BME280;54412;51.206;6.888;2022-07-23T07:24:59;101210.38;;;21.74;66.80
10460;BME280;54412;51.206;6.888;2022-07-23T07:27:25;101216.81;;;21.83;66.45
10460;BME280;54412;51.206;6.888;2022-07-23T07:29:51;101223.34;;;21.90;65.90
10460;BME280;54412;51.206;6.888;2022-07-23T07:32:17;101222.66;;;21.77;65.73
10460;BME280;54412;51.206;6.888;2022-07-23T07:34:42;101222.31;;;21.82;66.60
10460;BME280;54412;51.206;6.888;2022-07-23T07:37:08;101219.84;;;21.99;65.09
10460;BME280;54412;51.206;6.888;2022-07-23T07:39:34;101226.50;;;22.05;64.87
10460;BME280;54412;51.206;6.888;2022-07-23T07:41:59;101227.13;;;22.18;64.27
10460;BME280;54412;51.206;6.888;2022-07-23T07:44:25;101235.72;;;22.12;64.70
10460;BME280;54412;51.206;6.888;2022-07-23T07:46:51;101232.19;;;22.11;64.77
10460;BME280;54412;51.206;6.888;2022-07-23T07:49:17;101236.66;;;22.31;63.01
10460;BME280;54412;51.206;6.888;2022-07-23T07:51:45;101228.13;;;22.66;63.08
10460;BME280;54412;51.206;6.888;2022-07-23T07:54:12;101237.41;;;22.52;62.89
10460;BME280;54412;51.206;6.888;2022-07-23T07:56:38;101239.28;;;22.22;63.27
10460;BME280;54412;51.206;6.888;2022-07-23T07:59:04;101247.72;;;22.08;63.39
10460;BME280;54412;51.206;6.888;2022-07-23T08:01:30;101245.34;;;21.84;64.31
10460;BME280;54412;51.206;6.888;2022-07-23T08:03:56;101247.72;;;21.98;63.52
10460;BME280;54412;51.206;6.888;2022-07-23T08:06:21;101242.69;;;22.24;63.74
10460;BME280;54412;51.206;6.888;2022-07-23T08:08:48;101245.66;;;22.60;62.48
10460;BME280;54412;51.206;6.888;2022-07-23T08:11:13;101249.09;;;22.72;61.31
10460;BME280;54412;51.206;6.888;2022-07-23T08:13:39;101252.91;;;22.89;60.34
10460;BME280;54412;51.206;6.888;2022-07-23T08:16:05;101253.50;;;23.11;60.01
10460;BME280;54412;51.206;6.888;2022-07-23T08:18:31;101254.94;;;23.06;60.03
10460;BME280;54412;51.206;6.888;2022-07-23T08:20:56;101256.63;;;23.26;58.98
10460;BME280;54412;51.206;6.888;2022-07-23T08:23:22;101251.84;;;23.29;58.27
10460;BME280;54412;51.206;6.888;2022-07-23T08:25:48;101259.31;;;23.35;57.84
10460;BME280;54412;51.206;6.888;2022-07-23T08:28:15;101262.47;;;23.40;57.40
10460;BME280;54412;51.206;6.888;2022-07-23T08:30:44;101255.47;;;23.57;56.92
10460;BME280;54412;51.206;6.888;2022-07-23T08:33:13;101262.41;;;23.69;56.92
10460;BME280;54412;51.206;6.888;2022-07-23T08:35:50;101274.00;;;23.69;56.96
10460;BME280;54412;51.206;6.888;2022-07-23T08:38:21;101281.06;;;23.90;56.50
10460;BME280;54412;51.206;6.888;2022-07-23T08:40:49;101276.53;;;23.80;56.81
10460;BME280;54412;51.206;6.888;2022-07-23T08:43:23;101272.56;;;23.75;56.98
10460;BME280;54412;51.206;6.888;2022-07-23T08:45:53;101267.81;;;23.59;58.12
10460;BME280;54412;51.206;6.888;2022-07-23T08:48:28;101269.69;;;23.49;57.11
10460;BME280;54412;51.206;6.888;2022-07-23T08:50:58;101282.38;;;23.28;56.50
10460;BME280;54412;51.206;6.888;2022-07-23T08:53:26;101280.16;;;23.62;56.94
10460;BME280;54412;51.206;6.888;2022-07-23T08:56:00;101278.22;;;24.01;56.44
10460;BME280;54412;51.206;6.888;2022-07-23T08:58:27;101271.41;;;24.33;55.49
10460;BME280;54412;51.206;6.888;2022-07-23T09:00:53;101286.34;;;24.28;55.14
10460;BME280;54412;51.206;6.888;2022-07-23T09:03:22;101280.06;;;24.37;55.14
10460;BME280;54412;51.206;6.888;2022-07-23T09:05:51;101286.97;;;24.66;53.85
10460;BME280;54412;51.206;6.888;2022-07-23T09:13:50;101294.41;;;24.64;53.48
10460;BME280;54412;51.206;6.888;2022-07-23T09:16:29;101290.16;;;24.89;51.16
10460;BME280;54412;51.206;6.888;2022-07-23T09:19:02;101286.34;;;24.55;51.10
10460;BME280;54412;51.206;6.888;2022-07-23T09:21:32;101293.53;;;24.64;52.47
10460;BME280;54412;51.206;6.888;2022-07-23T09:24:10;101286.97;;;24.66;52.12
10460;BME280;54412;51.206;6.888;2022-07-23T09:26:44;101276.00;;;24.77;52.81
10460;BME280;54412;51.206;6.888;2022-07-23T09:29:24;101283.72;;;24.72;53.47
10460;BME280;54412;51.206;6.888;2022-07-23T09:32:00;101278.59;;;24.97;52.59
10460;BME280;54412;51.206;6.888;2022-07-23T09:34:36;101292.31;;;24.86;51.88
10460;BME280;54412;51.206;6.888;2022-07-23T09:37:14;101291.53;;;24.93;49.37
10460;BME280;54412;51.206;6.888;2022-07-23T09:39:41;101288.00;;;24.93;50.63
10460;BME280;54412;51.206;6.888;2022-07-23T09:42:15;101294.78;;;24.97;50.10
10460;BME280;54412;51.206;6.888;2022-07-23T09:44:44;101292.41;;;25.11;49.19
10460;BME280;54412;51.206;6.888;2022-07-23T09:47:09;101298.94;;;25.09;48.86
10460;BME280;54412;51.206;6.888;2022-07-23T09:49:35;101294.41;;;25.27;49.08
10460;BME280;54412;51.206;6.888;2022-07-23T09:52:02;101284.00;;;25.14;48.65
10460;BME280;54412;51.206;6.888;2022-07-23T09:57:09;101292.03;;;25.41;49.35
10460;BME280;54412;51.206;6.888;2022-07-23T09:59:40;101298.56;;;25.56;48.00
10460;BME280;54412;51.206;6.888;2022-07-23T10:02:09;101301.16;;;25.66;48.95
10460;BME280;54412;51.206;6.888;2022-07-23T10:04:36;101297.63;;;25.65;48.44
10460;BME280;54412;51.206;6.888;2022-07-23T10:07:05;101293.94;;;25.92;46.88
10460;BME280;54412;51.206;6.888;2022-07-23T10:09:35;101293.44;;;25.97;47.70
10460;BME280;54412;51.206;6.888;2022-07-23T10:12:13;101297.28;;;25.86;46.24
10460;BME280;54412;51.206;6.888;2022-07-23T10:14:58;101293.00;;;26.01;46.94
10460;BME280;54412;51.206;6.888;2022-07-23T10:17:27;101283.66;;;26.21;45.83
10460;BME280;54412;51.206;6.888;2022-07-23T10:19:53;101283.13;;;25.92;46.77
10460;BME280;54412;51.206;6.888;2022-07-23T10:22:33;101281.31;;;26.01;45.40
10460;BME280;54412;51.206;6.888;2022-07-23T10:25:36;101279.72;;;26.16;45.30
10460;BME280;54412;51.206;6.888;2022-07-23T10:28:21;101278.94;;;26.23;44.75
10460;BME280;54412;51.206;6.888;2022-07-23T10:34:35;101276.81;;;26.43;45.94
10460;BME280;54412;51.206;6.888;2022-07-23T10:37:23;101271.66;;;25.98;44.58
10460;BME280;54412;51.206;6.888;2022-07-23T10:42:46;101265.28;;;26.33;44.28
10460;BME280;54412;51.206;6.888;2022-07-23T10:45:38;101269.94;;;26.15;45.68
10460;BME280;54412;51.206;6.888;2022-07-23T10:51:11;101265.97;;;26.35;44.91
10460;BME280;54412;51.206;6.888;2022-07-23T10:53:56;101254.88;;;26.46;44.63
10460;BME280;54412;51.206;6.888;2022-07-23T10:56:50;101264.72;;;26.63;45.65
10460;BME280;54412;51.206;6.888;2022-07-23T10:59:29;101262.19;;;26.61;44.25
10460;BME280;54412;51.206;6.888;2022-07-23T11:02:21;101264.63;;;26.80;45.28
10460;BME280;54412;51.206;6.888;2022-07-23T11:04:50;101260.19;;;26.71;43.19
10460;BME280;54412;51.206;6.888;2022-07-23T11:07:16;101259.56;;;26.94;41.62
10460;BME280;54412;51.206;6.888;2022-07-23T11:09:44;101274.78;;;26.78;41.94
10460;BME280;54412;51.206;6.888;2022-07-23T11:20:22;101271.28;;;26.52;41.33
10460;BME280;54412;51.206;6.888;2022-07-23T11:22:58;101255.53;;;26.98;42.11
10460;BME280;54412;51.206;6.888;2022-07-23T11:28:13;101264.50;;;27.22;40.75
10460;BME280;54412;51.206;6.888;2022-07-23T11:30:45;101259.94;;;27.15;41.85
10460;BME280;54412;51.206;6.888;2022-07-23T11:35:40;101261.13;;;27.28;41.22
10460;BME280;54412;51.206;6.888;2022-07-23T11:38:21;101272.50;;;27.48;39.85
10460;BME280;54412;51.206;6.888;2022-07-23T11:40:53;101268.78;;;27.57;39.47
10460;BME280;54412;51.206;6.888;2022-07-23T11:43:21;101260.84;;;27.55;40.21
10460;BME280;54412;51.206;6.888;2022-07-23T11:45:52;101260.13;;;27.69;39.81
10460;BME280;54412;51.206;6.888;2022-07-23T11:48:22;101263.66;;;27.86;39.40
10460;BME280;54412;51.206;6.888;2022-07-23T11:50:49;101262.78;;;28.02;38.74
10460;BME280;54412;51.206;6.888;2022-07-23T11:53:45;101262.31;;;27.98;38.35
10460;BME280;54412;51.206;6.888;2022-07-23T11:56:11;101259.59;;;28.06;38.12
10460;BME280;54412;51.206;6.888;2022-07-23T11:58:39;101260.25;;;28.00;37.05
10460;BME280;54412;51.206;6.888;2022-07-23T12:01:19;101269.47;;;27.43;36.48
10460;BME280;54412;51.206;6.888;2022-07-23T12:03:51;101263.50;;;27.63;38.33
10460;BME280;54412;51.206;6.888;2022-07-23T12:06:17;101258.91;;;27.88;37.83
10460;BME280;54412;51.206;6.888;2022-07-23T12:08:43;101258.75;;;27.90;38.24
10460;BME280;54412;51.206;6.888;2022-07-23T12:11:12;101257.00;;;28.13;37.28
10460;BME280;54412;51.206;6.888;2022-07-23T12:13:38;101263.97;;;28.15;38.51
10460;BME280;54412;51.206;6.888;2022-07-23T12:16:04;101258.41;;;27.93;37.56
10460;BME280;54412;51.206;6.888;2022-07-23T12:18:31;101262.94;;;28.16;38.13
10460;BME280;54412;51.206;6.888;2022-07-23T12:21:03;101261.19;;;28.23;37.42
10460;BME280;54412;51.206;6.888;2022-07-23T12:23:29;101249.66;;;28.29;36.61
10460;BME280;54412;51.206;6.888;2022-07-23T12:26:00;101257.31;;;28.18;37.71
10460;BME280;54412;51.206;6.888;2022-07-23T12:28:33;101252.25;;;28.15;37.12
10460;BME280;54412;51.206;6.888;2022-07-23T12:31:03;101254.44;;;28.19;37.14
10460;BME280;54412;51.206;6.888;2022-07-23T12:33:34;101257.22;;;27.87;37.53
10460;BME280;54412;51.206;6.888;2022-07-23T12:36:07;101251.50;;;27.66;36.92
10460;BME280;54412;51.206;6.888;2022-07-23T12:38:43;101257.41;;;27.69;36.86
10460;BME280;54412;51.206;6.888;2022-07-23T12:41:09;101257.41;;;27.77;36.85
10460;BME280;54412;51.206;6.888;2022-07-23T12:43:44;101259.59;;;27.90;37.85
10460;BME280;54412;51.206;6.888;2022-07-23T12:46:16;101262.06;;;28.16;36.88
10460;BME280;54412;51.206;6.888;2022-07-23T12:51:18;101266.34;;;28.49;37.19
10460;BME280;54412;51.206;6.888;2022-07-23T12:53:51;101259.28;;;28.40;37.80
10460;BME280;54412;51.206;6.888;2022-07-23T12:56:31;101266.94;;;28.28;37.27
10460;BME280;54412;51.206;6.888;2022-07-23T13:01:32;101265.56;;;27.77;38.56
10460;BME280;54412;51.206;6.888;2022-07-23T13:04:08;101266.69;;;27.83;38.06
10460;BME280;54412;51.206;6.888;2022-07-23T13:06:40;101266.19;;;28.12;38.21
10460;BME280;54412;51.206;6.888;2022-07-23T13:09:10;101273.47;;;28.11;37.94
10460;BME280;54412;51.206;6.888;2022-07-23T13:11:38;101274.84;;;27.99;37.24
10460;BME280;54412;51.206;6.888;2022-07-23T13:14:04;101275.22;;;27.40;39.14
10460;BME280;54412;51.206;6.888;2022-07-23T13:16:32;101277.06;;;27.23;39.82
10460;BME280;54412;51.206;6.888;2022-07-23T13:18:59;101276.34;;;27.13;39.36
10460;BME280;54412;51.206;6.888;2022-07-23T13:21:27;101268.75;;;27.25;39.19
10460;BME280;54412;51.206;6.888;2022-07-23T13:23:54;101275.34;;;27.14;39.34
10460;BME280;54412;51.206;6.888;2022-07-23T13:26:20;101277.88;;;27.00;39.36
10460;BME280;54412;51.206;6.888;2022-07-23T13:28:46;101272.50;;;27.48;38.70
10460;BME280;54412;51.206;6.888;2022-07-23T13:31:13;101269.78;;;27.72;38.08